Time;durP1;ratioP1;P1;durP2;ratioP2;P2;SDS_P1;SDS_P2;PMS_P1;PMS_P2;Temp;Humidity;BMP_temperature;BMP_pressure;BME280_temperature;BME280_humidity;BME280_pressure;Samples;Min_cycle;Max_cycle;Signal;HPM_P1;HPM_P2
2024/03/17 00:21:52;;;;;;;68.50;33.20;;;;;;;-147.86;100.00;46437.89;102682;1293;601159;-46
2024/03/17 00:24:20;;;;;;;60.70;30.60;;;;;;;-147.86;100.00;39093.57;104853;1267;60553;-46
2024/03/17 00:26:51;;;;;;;59.70;31.30;;;;;;;-147.86;100.00;39558.14;104895;1273;60036;-44
2024/03/17 00:29:18;;;;;;;70.90;34.80;;;;;;;-147.86;100.00;39535.47;104893;1265;72046;-45
2024/03/17 00:31:46;;;;;;;71.90;35.60;;;;;;;-147.86;100.00;39705.61;104869;1266;62984;-45
2024/03/17 00:34:15;;;;;;;71.40;34.10;;;;;;;-147.86;100.00;39758.81;105522;1264;72630;-45
2024/03/17 00:36:42;;;;;;;65.80;33.10;;;;;;;-147.86;100.00;39753.35;105409;1258;287351;-46
2024/03/17 00:39:10;;;;;;;63.00;33.10;;;;;;;-147.86;100.00;39915.30;105589;1258;60094;-46
2024/03/17 00:41:38;;;;;;;77.00;38.90;;;;;;;-147.86;100.00;40018.20;105571;1257;71839;-46
2024/03/17 00:44:06;;;;;;;69.40;34.20;;;;;;;-147.86;100.00;40064.77;105616;1257;65159;-45
2024/03/17 00:46:34;;;;;;;70.50;36.00;;;;;;;-147.86;100.00;40190.36;105599;1258;70697;-46
2024/03/17 00:49:01;;;;;;;71.70;34.20;;;;;;;-147.86;100.00;40264.70;105575;1261;60802;-47
2024/03/17 00:51:29;;;;;;;70.90;34.40;;;;;;;-147.86;100.00;40289.74;105591;1262;60482;-45
2024/03/17 00:53:56;;;;;;;65.50;33.50;;;;;;;-147.86;100.00;40309.30;105561;1260;73132;-46
2024/03/17 00:56:24;;;;;;;63.80;33.70;;;;;;;-147.86;100.00;40333.96;105556;1261;63697;-45
2024/03/17 00:58:52;;;;;;;69.30;34.20;;;;;;;-147.86;100.00;40374.64;105567;1261;71890;-45
2024/03/17 01:01:20;;;;;;;61.20;31.80;;;;;;;-147.86;100.00;40357.05;105630;1268;60533;-47
2024/03/17 01:03:48;;;;;;;64.40;33.40;;;;;;;-147.86;100.00;40455.26;105668;1260;60338;-47
2024/03/17 01:06:15;;;;;;;65.40;33.80;;;;;;;-147.86;100.00;40468.17;105608;1257;73788;-46
2024/03/17 01:08:43;;;;;;;68.80;34.10;;;;;;;-147.86;100.00;40542.52;105579;1260;64269;-47
2024/03/17 01:21:52;;;;;;;67.20;34.40;;;;;;;-147.86;100.00;46836.86;102722;1295;601557;-47
2024/03/17 02:01:33;;;;;;;70.50;35.10;;;;;;;-147.86;100.00;31773.44;102872;1294;600306;-46
2024/03/17 02:04:01;;;;;;;81.90;39.10;;;;;;;-147.86;100.00;9009.50;104883;1269;61743;-46
2024/03/17 02:06:29;;;;;;;73.70;38.40;;;;;;;-147.86;100.00;15840.11;104868;1272;59536;-48
2024/03/17 02:08:57;;;;;;;70.90;37.00;;;;;;;-147.86;100.00;24942.23;105038;1269;73050;-46
2024/03/17 02:11:26;;;;;;;78.90;39.40;;;;;;;-147.86;100.00;30041.99;104889;1263;64593;-47
2024/03/17 02:13:54;;;;;;;75.40;38.70;;;;;;;-147.86;100.00;32620.85;104951;1266;71441;-48
2024/03/17 02:16:23;;;;;;;78.10;39.10;;;;;;;-147.86;100.00;34246.64;105512;1259;247815;-48
2024/03/17 02:18:57;;;;;;;74.60;38.90;;;;;;;-147.86;100.00;35179.63;105545;1262;60009;-48
2024/03/17 02:21:27;;;;;;;80.60;39.60;;;;;;;-147.86;100.00;35490.14;105531;1262;72992;-46
2024/03/17 02:23:56;;;;;;;77.30;39.70;;;;;;;-147.86;100.00;36364.61;105566;1256;65181;-47
2024/03/17 02:26:25;;;;;;;92.20;43.20;;;;;;;-147.86;100.00;36884.85;105533;1262;72130;-47
2024/03/17 02:28:52;;;;;;;94.60;45.70;;;;;;;-147.86;100.00;37190.58;105517;1262;60410;-46
2024/03/17 02:31:22;;;;;;;74.80;39.50;;;;;;;-147.86;100.00;37611.62;105519;1262;60358;-46
2024/03/17 02:33:49;;;;;;;76.90;37.70;;;;;;;-147.86;100.00;37747.34;105561;1257;72535;-46
2024/03/17 02:36:17;;;;;;;75.70;39.80;;;;;;;-147.86;100.00;38044.48;105509;1262;64063;-46
2024/03/17 03:20:51;;;;;;;72.60;37.20;;;;;;;-147.86;100.00;45831.90;102818;1294;600615;-46
2024/03/17 03:23:19;;;;;;;76.10;38.00;;;;;;;-147.86;100.00;36079.80;105177;1269;61600;-46
2024/03/17 03:25:48;;;;;;;80.30;39.20;;;;;;;-147.86;100.00;37515.11;105031;1264;59940;-46
2024/03/17 03:28:16;;;;;;;82.20;39.40;;;;;;;-147.86;100.00;37736.02;104837;1273;72106;-47
2024/03/17 03:30:43;;;;;;;83.80;39.90;;;;;;;-147.86;100.00;37949.88;105033;1264;63823;-46
2024/03/17 03:33:11;;;;;;;82.90;40.50;;;;;;;-147.86;100.00;38098.48;105019;1264;72610;-45
2024/03/17 03:35:39;;;;;;;85.90;41.30;;;;;;;-147.86;100.00;38117.28;105034;1264;60772;-46
2024/03/17 03:38:08;;;;;;;86.70;42.20;;;;;;;-147.86;100.00;38298.31;105295;1266;60621;-46
2024/03/17 03:40:36;;;;;;;91.30;44.50;;;;;;;-147.86;100.00;38267.47;105152;1266;71063;-47
2024/03/17 03:43:04;;;;;;;89.40;43.70;;;;;;;-147.86;100.00;38468.82;105215;1263;63890;-47
2024/03/17 04:21:51;;;;;;;84.20;41.80;;;;;;;-147.86;100.00;45735.46;102965;1290;600958;-46
2024/03/17 04:24:19;;;;;;;81.80;40.40;;;;;;;-147.86;100.00;35727.48;105187;1265;61617;-47
2024/03/17 04:26:46;;;;;;;85.50;42.00;;;;;;;-147.86;100.00;36787.99;105078;1269;59970;-46
2024/03/17 04:29:14;;;;;;;87.20;41.40;;;;;;;-147.86;100.00;36948.27;105110;1269;72544;-47
2024/03/17 05:21:55;;;;;;;73.10;38.10;;;;;;;-147.86;100.00;41188.70;102691;1292;600926;-50
2024/03/17 05:24:22;;;;;;;79.80;39.60;;;;;;;-147.86;100.00;29304.34;104808;1267;60196;-51
2024/03/17 05:26:50;;;;;;;76.20;39.00;;;;;;;-147.86;100.00;29934.23;104791;1267;59606;-49
2024/03/17 06:21:12;;;;;;;76.90;39.40;;;;;;;-147.86;100.00;37931.80;102752;1290;601142;-48
2024/03/17 06:23:40;;;;;;;74.10;39.40;;;;;;;-147.86;100.00;28811.41;105161;1265;59765;-49
2024/03/17 06:26:11;;;;;;;71.70;39.30;;;;;;;-147.86;100.00;28474.08;105194;1267;59529;-48
2024/03/17 06:28:40;;;;;;;74.80;40.10;;;;;;;-147.86;100.00;28691.53;104880;1270;71400;-46
2024/03/17 06:31:10;;;;;;;76.00;38.40;;;;;;;-147.86;100.00;28513.10;105113;1264;63337;-51
2024/03/17 06:33:37;;;;;;;64.00;36.50;;;;;;;-147.86;100.00;28769.49;104936;1264;72612;-49
2024/03/17 06:36:06;;;;;;;73.70;38.70;;;;;;;-147.86;100.00;28779.22;105049;1264;59952;-48
2024/03/17 06:38:34;;;;;;;72.50;39.80;;;;;;;-147.86;100.00;28680.10;105238;1266;59938;-46
2024/03/17 06:41:02;;;;;;;69.80;36.40;;;;;;;-147.86;100.00;28619.25;105240;1266;72102;-49
2024/03/17 06:43:30;;;;;;;70.80;37.50;;;;;;;-147.86;100.00;28396.08;105542;1258;63507;-51
2024/03/17 06:45:58;;;;;;;70.40;35.30;;;;;;;-147.86;100.00;28703.09;105528;1259;71612;-47
2024/03/17 06:48:26;;;;;;;70.20;36.70;;;;;;;-147.86;100.00;28614.96;105539;1260;60742;-46
2024/03/17 06:50:54;;;;;;;74.00;37.40;;;;;;;-147.86;100.00;28419.91;105545;1258;60347;-49
2024/03/17 06:53:23;;;;;;;69.40;35.60;;;;;;;-147.86;100.00;28195.98;105569;1263;72156;-47
2024/03/17 06:55:58;;;;;;;74.60;35.80;;;;;;;-147.86;100.00;28084.84;105581;1263;65339;-48
2024/03/17 06:58:27;;;;;;;79.10;37.60;;;;;;;-147.86;100.00;28376.47;105561;1262;72639;-50
2024/03/17 07:01:00;;;;;;;71.80;36.80;;;;;;;-147.86;100.00;28060.29;105559;1257;61636;-51
2024/03/17 07:03:30;;;;;;;69.90;35.10;;;;;;;-147.86;100.00;28110.37;105575;1258;60536;-50
2024/03/17 07:06:01;;;;;;;68.00;34.70;;;;;;;-147.86;100.00;27686.63;105554;1258;73766;-50
2024/03/17 07:08:30;;;;;;;69.60;35.60;;;;;;;-147.86;100.00;27541.21;105587;1258;62796;-49
2024/03/17 07:11:02;;;;;;;59.30;32.20;;;;;;;-147.86;100.00;27075.05;105544;1257;72765;-48
2024/03/17 07:13:38;;;;;;;67.80;33.90;;;;;;;-147.86;100.00;27016.29;105547;1259;61599;-49
2024/03/17 07:16:06;;;;;;;63.10;33.90;;;;;;;-147.86;100.00;27002.38;105586;1258;60610;-51
2024/03/17 07:18:34;;;;;;;64.90;32.60;;;;;;;-147.86;100.00;26339.49;105402;1266;72866;-49
2024/03/17 07:21:06;;;;;;;59.90;31.30;;;;;;;-147.86;100.00;26179.24;105331;1260;63116;-50
2024/03/17 07:23:34;;;;;;;66.10;33.20;;;;;;;-147.86;100.00;26256.96;105316;1261;70417;-48
2024/03/17 07:26:02;;;;;;;59.20;31.60;;;;;;;-147.86;100.00;26005.73;105251;1264;60485;-50
2024/03/17 07:28:29;;;;;;;60.50;30.90;;;;;;;-147.86;100.00;25980.77;105314;1266;60335;-51
2024/03/17 07:30:58;;;;;;;58.50;30.60;;;;;;;-147.86;100.00;25866.89;105333;1266;73792;-48
2024/03/17 08:20:10;;;;;;;50.00;27.40;;;;;;;-147.86;100.00;34262.51;102784;1289;600836;-49
2024/03/17 08:22:38;;;;;;;50.90;25.90;;;;;;;-147.86;100.00;23159.04;105146;1264;60408;-47
2024/03/17 08:25:06;;;;;;;49.20;26.10;;;;;;;-147.86;100.00;24025.72;105045;1264;59680;-48
2024/03/17 08:27:33;;;;;;;50.60;26.10;;;;;;;-147.86;100.00;24826.70;105051;1264;71780;-46
2024/03/17 08:30:01;;;;;;;50.30;27.00;;;;;;;-147.86;100.00;25502.56;105164;1266;64055;-49
2024/03/17 08:32:29;;;;;;;47.60;26.90;;;;;;;-147.86;100.00;26056.21;105050;1267;71447;-49
2024/03/17 08:34:57;;;;;;;48.60;26.90;;;;;;;-147.86;100.00;26663.43;105052;1266;260524;-47
2024/03/17 08:37:25;;;;;;;52.00;26.60;;;;;;;-147.86;100.00;27430.52;105207;1264;61221;-49
2024/03/17 08:39:53;;;;;;;43.60;25.10;;;;;;;-147.86;100.00;28103.91;105174;1266;72860;-50
2024/03/17 08:42:21;;;;;;;43.80;25.30;;;;;;;-147.86;100.00;28969.90;105258;1263;64151;-48
2024/03/17 08:44:48;;;;;;;49.00;26.50;;;;;;;-147.86;100.00;29744.51;105233;1267;73756;-48
2024/03/17 08:47:16;;;;;;;45.80;24.50;;;;;;;-147.86;100.00;30624.04;105182;1263;60539;-48
2024/03/17 08:49:43;;;;;;;45.70;26.10;;;;;;;-147.86;100.00;31230.95;105179;1264;60939;-50
2024/03/17 08:52:11;;;;;;;42.40;23.20;;;;;;;-147.86;100.00;31719.59;105212;1264;72387;-49
2024/03/17 13:41:39;;;;;;;8.30;7.10;;;;;;;-147.86;100.00;37010.34;103431;1281;616780;-48
2024/03/17 13:44:07;;;;;;;7.10;6.20;;;;;;;-147.86;100.00;41105.96;104938;1269;63389;-47
2024/03/17 13:46:34;;;;;;;9.90;6.50;;;;;;;-147.86;100.00;42508.97;104907;1267;60447;-47
2024/03/17 13:49:09;;;;;;;8.10;6.00;;;;;;;-147.86;100.00;43160.40;104876;1267;74448;-47
2024/03/17 13:51:36;;;;;;;6.90;5.40;;;;;;;-147.86;100.00;40355.87;104890;1269;65837;-46
2024/03/17 13:54:03;;;;;;;6.40;4.90;;;;;;;-147.86;100.00;24011.43;104767;1264;267408;-48
2024/03/17 13:56:31;;;;;;;9.60;5.10;;;;;;;-147.86;100.00;-5415.57;105201;1264;61608;-48
2024/03/17 13:58:59;;;;;;;7.10;5.40;;;;;;;-147.86;100.00;-17424.69;105243;1264;60471;-45
2024/03/17 14:01:26;;;;;;;5.40;4.70;;;;;;;-147.86;100.00;-17609.17;105285;1267;74348;-48
2024/03/17 14:03:54;;;;;;;5.00;4.50;;;;;;;-147.86;100.00;-17609.17;105249;1268;66095;-49
2024/03/17 14:06:21;;;;;;;6.50;4.90;;;;;;;-147.86;100.00;-17609.17;105144;1269;71872;-47
2024/03/17 14:08:48;;;;;;;6.10;5.40;;;;;;;-147.86;100.00;-17609.17;105225;1269;61507;-46
2024/03/17 14:11:15;;;;;;;6.60;5.10;;;;;;;-147.86;100.00;-17609.17;105232;1263;61355;-48
2024/03/17 14:13:42;;;;;;;6.80;5.00;;;;;;;-147.86;100.00;-17609.17;105197;1264;75478;-47
2024/03/17 14:16:11;;;;;;;5.50;4.90;;;;;;;-147.86;100.00;-17609.17;105669;1260;66640;-50
2024/03/17 14:18:38;;;;;;;5.90;5.40;;;;;;;-147.86;100.00;-17609.17;105630;1257;74346;-51
2024/03/17 14:21:05;;;;;;;5.70;5.10;;;;;;;-147.86;100.00;-17609.17;105631;1259;61810;-47
2024/03/17 14:23:33;;;;;;;6.90;5.60;;;;;;;-147.86;100.00;-17609.17;105647;1256;61968;-46
2024/03/17 14:26:00;;;;;;;9.80;5.30;;;;;;;-147.86;100.00;-17609.17;105629;1257;74941;-51
2024/03/17 14:28:27;;;;;;;7.60;5.10;;;;;;;-147.86;100.00;-17609.17;105603;1260;65940;-48
2024/03/17 14:30:54;;;;;;;6.80;5.20;;;;;;;-147.86;100.00;-17609.17;105539;1257;73798;-48
2024/03/17 14:33:21;;;;;;;7.10;5.60;;;;;;;-147.86;100.00;-17609.17;105596;1259;60579;-47
2024/03/17 14:35:56;;;;;;;9.30;6.70;;;;;;;-147.86;100.00;-17609.17;105613;1257;61464;-47
2024/03/17 14:38:23;;;;;;;7.20;5.60;;;;;;;-147.86;100.00;-17609.17;105660;1258;73985;-46
2024/03/17 14:40:53;;;;;;;9.20;6.10;;;;;;;-147.86;100.00;-17609.17;105624;1261;66694;-45
2024/03/17 14:43:20;;;;;;;7.30;6.30;;;;;;;-147.86;100.00;-17609.17;105610;1257;73786;-45
2024/03/17 14:45:48;;;;;;;7.60;6.30;;;;;;;-147.86;100.00;-17609.17;105595;1260;61885;-45
2024/03/17 14:48:15;;;;;;;8.80;6.00;;;;;;;-147.86;100.00;-17609.17;105553;1257;60341;-48
2024/03/17 14:50:42;;;;;;;7.10;5.70;;;;;;;-147.86;100.00;-17609.17;105581;1258;72940;-47
2024/03/17 14:53:09;;;;;;;11.10;6.20;;;;;;;-147.86;100.00;-17609.17;105539;1261;66767;-50
2024/03/17 14:55:37;;;;;;;8.10;6.70;;;;;;;-147.86;100.00;-17151.27;105553;1257;74011;-47
2024/03/17 14:58:06;;;;;;;9.20;6.40;;;;;;;-147.86;100.00;-15449.51;105599;1262;61525;-50
2024/03/17 15:00:33;;;;;;;9.60;6.50;;;;;;;-147.86;100.00;-14296.13;105694;1257;60437;-46
2024/03/17 15:03:00;;;;;;;11.90;6.80;;;;;;;-147.86;100.00;-12884.48;105648;1261;74998;-46
2024/03/17 15:05:28;;;;;;;8.20;5.80;;;;;;;-147.86;100.00;-10444.84;105576;1257;66730;-46
2024/03/17 15:07:54;;;;;;;6.90;6.10;;;;;;;-147.86;100.00;-7668.96;105545;1263;73792;-47
2024/03/17 15:10:23;;;;;;;7.30;6.40;;;;;;;-147.86;100.00;-5840.36;105561;1263;60552;-46
2024/03/17 15:12:50;;;;;;;7.40;6.10;;;;;;;-147.86;100.00;-4446.65;105593;1264;60623;-49
2024/03/17 15:15:17;;;;;;;7.20;6.10;;;;;;;-147.86;100.00;-2668.39;105544;1257;74933;-48
2024/03/17 15:17:44;;;;;;;8.50;6.70;;;;;;;-147.86;100.00;-648.59;105538;1263;66773;-45
2024/03/17 15:20:18;;;;;;;8.40;6.60;;;;;;;-147.86;100.00;706.44;105545;1262;74006;-44
2024/03/17 15:22:49;;;;;;;10.50;6.00;;;;;;;-147.86;100.00;4475.97;105591;1261;63005;-45
2024/03/17 15:25:16;;;;;;;9.60;7.10;;;;;;;-147.86;100.00;9801.93;105589;1257;60487;-47
2024/03/17 15:27:45;;;;;;;11.70;8.30;;;;;;;-147.86;100.00;17364.41;105635;1262;75403;-45
2024/03/17 15:30:18;;;;;;;11.60;7.90;;;;;;;-147.86;100.00;26969.77;105574;1271;66673;-47
2024/03/17 15:32:46;;;;;;;11.40;8.50;;;;;;;-147.86;100.00;35108.53;105560;1260;71735;-44
2024/03/17 15:35:13;;;;;;;12.60;8.20;;;;;;;-147.86;100.00;40449.04;105585;1260;63125;-44
2024/03/17 15:37:41;;;;;;;10.20;7.80;;;;;;;-147.86;100.00;42621.64;105792;1257;60559;-44
2024/03/17 15:40:27;;;;;;;11.40;7.60;;;;;;;-147.86;100.00;42317.45;105624;1258;73324;-45
2024/03/17 15:42:56;;;;;;;15.00;8.60;;;;;;;-147.86;100.00;40158.27;105603;1260;65559;-47
2024/03/17 15:45:25;;;;;;;12.10;9.10;;;;;;;-147.86;100.00;36112.77;105671;1260;72783;-49
2024/03/17 15:47:56;;;;;;;14.30;9.00;;;;;;;-147.86;100.00;30327.20;105640;1260;61772;-47
2024/03/17 15:50:23;;;;;;;15.60;9.70;;;;;;;-147.86;100.00;23727.10;105610;1258;61340;-45
2024/03/17 15:52:51;;;;;;;13.80;9.70;;;;;;;-147.86;100.00;17991.46;105596;1259;75016;-48
2024/03/17 15:55:18;;;;;;;14.10;9.30;;;;;;;-147.86;100.00;13218.56;105624;1259;66892;-48
2024/03/17 15:57:46;;;;;;;11.00;8.60;;;;;;;-147.86;100.00;9030.76;105580;1257;71637;-44
2024/03/17 16:00:13;;;;;;;11.80;8.30;;;;;;;-147.86;100.00;5008.27;105594;1259;61501;-44
2024/03/17 16:02:40;;;;;;;12.70;9.70;;;;;;;-147.86;100.00;1535.50;105579;1258;60356;-50
2024/03/17 16:05:11;;;;;;;15.30;9.50;;;;;;;-147.86;100.00;-1587.35;105640;1260;75045;-47
2024/03/17 16:07:38;;;;;;;13.40;8.80;;;;;;;-147.86;100.00;-4509.64;105650;1260;65616;-46
2024/03/17 16:10:09;;;;;;;14.80;9.80;;;;;;;-147.86;100.00;-7132.81;105725;1263;72962;-47
2024/03/17 16:12:40;;;;;;;11.90;9.00;;;;;;;-147.86;100.00;-9061.99;105682;1260;62961;-47
2024/03/17 16:15:08;;;;;;;12.90;9.00;;;;;;;-147.86;100.00;-10792.41;105580;1260;60450;-44
2024/03/17 16:17:38;;;;;;;14.80;9.70;;;;;;;-147.86;100.00;-12373.88;105598;1259;75015;-48
2024/03/17 16:20:09;;;;;;;14.60;10.00;;;;;;;-147.86;100.00;-13361.94;105607;1260;66199;-46
2024/03/17 16:22:37;;;;;;;15.20;10.00;;;;;;;-147.86;100.00;-14152.21;105613;1262;70617;-46
2024/03/17 16:25:05;;;;;;;15.50;10.10;;;;;;;-147.86;100.00;-14892.94;105670;1260;61008;-47
2024/03/17 16:27:32;;;;;;;18.20;9.90;;;;;;;-147.86;100.00;-15584.16;105701;1261;61495;-46
2024/03/17 16:30:00;;;;;;;15.10;10.10;;;;;;;-147.86;100.00;-16176.53;105635;1260;74972;-45
2024/03/17 16:32:28;;;;;;;16.30;10.30;;;;;;;-147.86;100.00;-16818.16;105631;1260;66795;-45
2024/03/17 16:34:55;;;;;;;15.50;10.80;;;;;;;-147.86;100.00;-17311.65;105597;1260;73646;-46
2024/03/17 16:37:22;;;;;;;16.70;11.00;;;;;;;-147.86;100.00;-17608.01;105639;1259;61515;-46
2024/03/17 16:39:49;;;;;;;17.90;11.20;;;;;;;-147.86;100.00;-17609.17;105613;1261;61359;-46
2024/03/17 16:42:16;;;;;;;17.00;11.60;;;;;;;-147.86;100.00;-17609.17;105607;1259;75020;-47
2024/03/17 16:45:16;;;;;;;20.50;11.70;;;;;;;-147.86;100.00;-17609.17;105619;1260;65908;-47
2024/03/17 16:47:44;;;;;;;23.20;13.10;;;;;;;-147.86;100.00;-17609.17;105599;1257;73907;-47
2024/03/17 16:50:11;;;;;;;19.70;12.00;;;;;;;-147.86;100.00;-17609.17;105666;1259;60545;-45
2024/03/17 16:52:39;;;;;;;18.80;12.40;;;;;;;-147.86;100.00;-17609.17;105642;1260;61349;-47
2024/03/17 16:55:08;;;;;;;22.10;12.90;;;;;;;-147.86;100.00;-17609.17;105614;1260;73912;-47
2024/03/17 16:57:35;;;;;;;15.00;10.70;;;;;;;-147.86;100.00;-17609.17;105603;1260;66803;-46
2024/03/17 17:00:14;;;;;;;22.30;13.00;;;;;;;-147.86;100.00;-17609.17;105687;1259;73785;-45
2024/03/17 17:02:47;;;;;;;16.40;11.50;;;;;;;-147.86;100.00;-17609.17;105616;1260;61524;-45
2024/03/17 17:05:14;;;;;;;18.00;10.80;;;;;;;-147.86;100.00;-17609.17;105617;1260;61483;-47
2024/03/17 17:07:42;;;;;;;16.40;11.10;;;;;;;-147.86;100.00;-17609.17;105643;1260;75244;-45
2024/03/17 17:10:13;;;;;;;15.80;11.00;;;;;;;-147.86;100.00;-17609.17;105637;1260;67055;-46
2024/03/17 17:12:43;;;;;;;14.80;10.40;;;;;;;-147.86;100.00;-17609.17;105590;1259;73521;-47
2024/03/17 17:15:15;;;;;;;17.20;10.90;;;;;;;-147.86;100.00;-17609.17;105576;1259;63347;-46
2024/03/17 17:17:47;;;;;;;16.80;11.20;;;;;;;-147.86;100.00;-17609.17;105637;1257;61695;-46
2024/03/17 17:20:14;;;;;;;14.90;10.90;;;;;;;-147.86;100.00;-17609.17;105621;1260;75078;-46
2024/03/17 17:22:41;;;;;;;16.60;10.80;;;;;;;-147.86;100.00;-17609.17;105650;1269;65731;-48
2024/03/17 17:25:11;;;;;;;15.90;11.00;;;;;;;-147.86;100.00;-17609.17;105602;1264;73637;-46
2024/03/17 17:27:38;;;;;;;16.10;9.90;;;;;;;-147.86;100.00;-17609.17;105582;1258;63010;-47
2024/03/17 17:30:06;;;;;;;14.20;10.10;;;;;;;-147.86;100.00;-17609.17;105604;1260;60654;-47
2024/03/17 17:32:36;;;;;;;14.60;9.70;;;;;;;-147.86;100.00;-17609.17;105630;1262;71720;-45
2024/03/17 17:35:05;;;;;;;13.00;10.00;;;;;;;-147.86;100.00;-17609.17;105631;1258;66743;-45
2024/03/17 17:37:32;;;;;;;15.00;10.50;;;;;;;-147.86;100.00;-17609.17;105645;1258;71820;-45
2024/03/17 17:39:59;;;;;;;18.40;10.10;;;;;;;-147.86;100.00;-17609.17;105660;1262;63123;-47
2024/03/17 17:42:26;;;;;;;14.20;9.40;;;;;;;-147.86;100.00;-17609.17;105609;1257;60581;-48
2024/03/17 17:44:56;;;;;;;12.10;9.00;;;;;;;-147.86;100.00;-17609.17;105616;1260;73899;-47
2024/03/17 17:47:24;;;;;;;12.10;8.60;;;;;;;-147.86;100.00;-17609.17;105639;1259;66070;-47
2024/03/17 17:49:51;;;;;;;15.20;9.00;;;;;;;-147.86;100.00;-17609.17;105606;1257;73945;-45
2024/03/17 17:52:18;;;;;;;13.20;9.50;;;;;;;-147.86;100.00;-17609.17;105624;1258;61330;-47
2024/03/17 17:54:45;;;;;;;16.30;10.20;;;;;;;-147.86;100.00;-17609.17;105602;1260;61533;-47
2024/03/17 17:57:12;;;;;;;13.00;9.80;;;;;;;-147.86;100.00;-17609.17;105636;1260;75652;-44
2024/03/17 17:59:39;;;;;;;13.60;8.90;;;;;;;-147.86;100.00;-17609.17;105598;1260;65647;-46
2024/03/17 18:02:06;;;;;;;13.00;9.20;;;;;;;-147.86;100.00;-17609.17;105585;1261;73858;-48
2024/03/17 18:04:34;;;;;;;11.00;8.70;;;;;;;-147.86;100.00;-17609.17;105641;1257;63378;-45
2024/03/17 18:07:00;;;;;;;12.90;8.90;;;;;;;-147.86;100.00;-17609.17;105632;1258;61466;-44
2024/03/17 18:09:29;;;;;;;13.50;9.50;;;;;;;-147.86;100.00;-17609.17;105657;1257;74971;-45
2024/03/17 18:11:56;;;;;;;12.50;9.10;;;;;;;-147.86;100.00;-17609.17;105711;1268;66851;-46
2024/03/17 18:14:24;;;;;;;12.50;9.10;;;;;;;-147.86;100.00;-17609.17;105624;1260;73857;-46
2024/03/17 18:16:52;;;;;;;11.40;8.20;;;;;;;-147.86;100.00;-17609.17;105629;1258;63113;-46
2024/03/17 18:19:20;;;;;;;12.70;8.70;;;;;;;-147.86;100.00;-17609.17;105651;1257;61441;-48
2024/03/17 18:21:47;;;;;;;12.70;9.30;;;;;;;-147.86;100.00;-17609.17;105648;1264;73788;-46
2024/03/17 18:24:14;;;;;;;12.10;8.50;;;;;;;-147.86;100.00;-17609.17;105616;1260;65702;-48
2024/03/17 18:26:41;;;;;;;12.00;8.50;;;;;;;-147.86;100.00;-17609.17;105684;1260;73967;-46
2024/03/17 18:29:08;;;;;;;11.20;8.30;;;;;;;-147.86;100.00;-17609.17;105591;1258;63134;-45
2024/03/17 18:31:36;;;;;;;12.90;7.90;;;;;;;-147.86;100.00;-17609.17;105633;1262;61411;-44
2024/03/17 18:34:04;;;;;;;11.90;9.00;;;;;;;-147.86;100.00;-17609.17;105650;1260;76290;-45
2024/03/17 18:36:33;;;;;;;11.40;8.40;;;;;;;-147.86;100.00;-17609.17;105647;1260;66707;-45
2024/03/17 18:39:01;;;;;;;10.80;8.50;;;;;;;-147.86;100.00;-17609.17;105631;1260;73987;-46
2024/03/17 18:41:28;;;;;;;11.50;8.00;;;;;;;-147.86;100.00;-17609.17;105608;1260;61750;-47
2024/03/17 18:43:57;;;;;;;12.70;8.80;;;;;;;-147.86;100.00;-17609.17;105625;1260;61295;-46
2024/03/17 18:46:24;;;;;;;9.70;7.90;;;;;;;-147.86;100.00;-17609.17;105623;1258;74825;-47
2024/03/17 18:48:51;;;;;;;9.20;7.40;;;;;;;-147.86;100.00;-17609.17;105593;1260;65890;-47
2024/03/17 18:51:22;;;;;;;10.40;8.40;;;;;;;-147.86;100.00;-17609.17;105599;1262;73030;-48
2024/03/17 18:53:52;;;;;;;12.10;8.30;;;;;;;-147.86;100.00;-17609.17;105622;1260;61440;-53
2024/03/17 18:56:20;;;;;;;11.40;8.50;;;;;;;-147.86;100.00;-17609.17;105714;1257;61351;-47
2024/03/17 18:58:47;;;;;;;11.70;8.70;;;;;;;-147.86;100.00;-17609.17;105641;1259;75866;-46
2024/03/17 19:01:15;;;;;;;10.20;7.80;;;;;;;-147.86;100.00;-17609.17;105600;1257;66785;-46
2024/03/17 19:03:43;;;;;;;10.30;7.70;;;;;;;-147.86;100.00;-17609.17;105581;1257;74282;-49
2024/03/17 19:06:11;;;;;;;10.50;7.80;;;;;;;-147.86;100.00;-17609.17;105598;1260;61528;-47
2024/03/17 19:08:39;;;;;;;9.30;7.50;;;;;;;-147.86;100.00;-17609.17;105649;1257;61285;-45
2024/03/17 19:11:06;;;;;;;10.70;8.40;;;;;;;-147.86;100.00;-17609.17;105643;1261;75816;-46
2024/03/17 19:13:33;;;;;;;10.80;8.10;;;;;;;-147.86;100.00;-17609.17;105664;1258;65863;-45
2024/03/17 19:16:08;;;;;;;11.10;7.60;;;;;;;-147.86;100.00;-17609.17;105579;1257;72294;-48
2024/03/17 19:18:37;;;;;;;8.20;5.70;;;;;;;-147.86;100.00;-17609.17;105601;1257;63214;-46
2024/03/17 19:21:08;;;;;;;9.30;7.30;;;;;;;-147.86;100.00;-17609.17;105705;1257;61437;-44
2024/03/17 19:23:36;;;;;;;12.80;7.90;;;;;;;-147.86;100.00;-17609.17;105624;1261;74727;-45
2024/03/17 19:26:11;;;;;;;9.80;7.90;;;;;;;-147.86;100.00;-17609.17;105955;1258;66955;-46
2024/03/17 19:28:42;;;;;;;9.30;7.70;;;;;;;-147.86;100.00;-17609.17;105844;1257;74130;-46
2024/03/17 19:31:09;;;;;;;9.00;7.20;;;;;;;-147.86;100.00;-17609.17;105851;1254;62011;-47
2024/03/17 19:33:37;;;;;;;9.50;6.90;;;;;;;-147.86;100.00;-17609.17;105840;1253;61536;-47
2024/03/17 19:36:05;;;;;;;9.00;6.60;;;;;;;-147.86;100.00;-17609.17;105882;1257;73623;-47
2024/03/17 19:38:39;;;;;;;9.10;7.40;;;;;;;-147.86;100.00;-17609.17;105851;1267;67003;-45
2024/03/17 19:41:09;;;;;;;11.30;7.60;;;;;;;-147.86;100.00;-17609.17;105839;1257;70553;-48
2024/03/17 19:43:40;;;;;;;9.50;7.80;;;;;;;-147.86;100.00;-17609.17;105806;1254;63122;-44
2024/03/17 19:46:13;;;;;;;13.90;6.90;;;;;;;-147.86;100.00;-17609.17;105904;1256;61083;-45
2024/03/17 19:48:49;;;;;;;8.60;6.90;;;;;;;-147.86;100.00;-17609.17;105889;1254;74944;-47
2024/03/17 19:51:18;;;;;;;9.20;7.30;;;;;;;-147.86;100.00;-17609.17;105930;1257;66098;-46
2024/03/17 19:53:46;;;;;;;10.30;7.20;;;;;;;-147.86;100.00;-17609.17;105901;1254;73708;-47
2024/03/17 19:56:14;;;;;;;10.10;7.10;;;;;;;-147.86;100.00;-17609.17;105851;1256;61791;-45
2024/03/17 19:58:42;;;;;;;9.70;7.30;;;;;;;-147.86;100.00;-17609.17;105848;1254;61272;-47
2024/03/17 20:01:09;;;;;;;9.50;7.60;;;;;;;-147.86;100.00;-17609.17;105894;1257;76315;-48
2024/03/17 20:03:38;;;;;;;9.50;7.70;;;;;;;-147.86;100.00;-17609.17;105878;1254;65715;-47
2024/03/17 20:06:06;;;;;;;11.60;7.30;;;;;;;-147.86;100.00;-17609.17;105909;1258;74224;-45
2024/03/17 20:08:34;;;;;;;12.40;6.70;;;;;;;-147.86;100.00;-17609.17;105888;1257;61383;-45
2024/03/17 20:11:01;;;;;;;11.40;8.20;;;;;;;-147.86;100.00;-17609.17;105885;1254;62948;-43
2024/03/17 20:13:28;;;;;;;9.20;7.50;;;;;;;-147.86;100.00;-17609.17;105847;1257;74827;-45
2024/03/17 20:15:55;;;;;;;8.60;7.20;;;;;;;-147.86;100.00;-17609.17;105868;1254;66632;-47
2024/03/17 20:18:26;;;;;;;11.10;7.60;;;;;;;-147.86;100.00;-17609.17;105899;1255;73749;-48
2024/03/17 20:20:53;;;;;;;8.30;7.40;;;;;;;-147.86;100.00;-17609.17;105877;1257;61164;-48
2024/03/17 20:23:20;;;;;;;13.90;7.70;;;;;;;-147.86;100.00;-17609.17;105924;1254;61598;-49
2024/03/17 20:25:46;;;;;;;11.10;7.80;;;;;;;-147.86;100.00;-17609.17;105905;1254;74778;-48
2024/03/17 20:28:13;;;;;;;9.20;7.30;;;;;;;-147.86;100.00;-17609.17;105882;1254;66092;-48
2024/03/17 20:30:41;;;;;;;10.20;7.80;;;;;;;-147.86;100.00;-17609.17;105861;1257;73796;-48
2024/03/17 20:33:08;;;;;;;10.60;7.20;;;;;;;-147.86;100.00;-17609.17;105859;1254;62177;-47
2024/03/17 20:35:35;;;;;;;8.40;7.00;;;;;;;-147.86;100.00;-17609.17;105677;1254;61336;-48
2024/03/17 20:38:03;;;;;;;8.70;7.10;;;;;;;-147.86;100.00;-17609.17;105884;1254;75699;-48